createdAt,value
2022-09-01T00:04:33.552Z,47.86
2022-09-01T00:09:40.710Z,47.95
2022-09-01T00:14:47.873Z,48.04
2022-09-01T00:19:55.099Z,48.30
2022-09-01T00:25:02.366Z,48.08
2022-09-01T00:30:09.558Z,47.97
2022-09-01T00:35:16.754Z,48.05
2022-09-01T00:40:24.051Z,48.31
2022-09-01T00:45:31.235Z,48.16
2022-09-01T00:50:38.434Z,47.80
2022-09-01T00:55:45.595Z,47.64
2022-09-01T01:00:52.776Z,47.85
2022-09-01T01:05:59.965Z,47.57
2022-09-01T01:11:07.221Z,47.52
2022-09-01T01:16:14.533Z,47.18
2022-09-01T01:21:21.736Z,47.38
2022-09-01T01:26:28.919Z,47.48
2022-09-01T01:31:36.218Z,47.93
2022-09-01T01:36:43.383Z,47.66
2022-09-01T01:41:50.546Z,47.64
2022-09-01T01:46:57.735Z,47.51
2022-09-01T01:52:04.951Z,47.35
2022-09-01T01:57:12.095Z,47.27
2022-09-01T02:02:19.347Z,47.29
2022-09-01T02:07:26.481Z,47.26
2022-09-01T02:12:33.679Z,47.21
2022-09-01T02:17:40.842Z,47.19
2022-09-01T02:22:48.029Z,47.14
2022-09-01T02:27:55.229Z,47.31
2022-09-01T02:33:02.471Z,47.35
2022-09-01T02:38:09.682Z,47.42
2022-09-01T02:43:16.861Z,47.31
2022-09-01T02:48:24.058Z,47.38
2022-09-01T02:53:31.853Z,47.34
2022-09-01T02:58:39.060Z,47.40
2022-09-01T03:03:46.321Z,47.45
2022-09-01T03:08:53.494Z,47.47
2022-09-01T03:14:00.689Z,47.68
2022-09-01T03:19:07.880Z,47.60
2022-09-01T03:24:15.062Z,47.85
2022-09-01T03:29:22.232Z,47.92
2022-09-01T03:34:29.414Z,48.02
2022-09-01T03:39:36.606Z,47.91
2022-09-01T03:44:43.799Z,47.81
2022-09-01T03:49:50.978Z,47.80
2022-09-01T03:54:58.216Z,47.98
2022-09-01T04:00:05.452Z,48.01
2022-09-01T04:05:12.695Z,48.17
2022-09-01T04:10:19.922Z,48.48
2022-09-01T04:15:27.103Z,48.50
2022-09-01T04:20:34.292Z,48.40
2022-09-01T04:25:41.474Z,48.32
2022-09-01T04:30:48.661Z,48.26
2022-09-01T04:35:55.858Z,48.29
2022-09-01T04:41:03.027Z,48.47
2022-09-01T04:46:10.246Z,48.46
2022-09-01T04:51:17.367Z,48.44
2022-09-01T04:56:24.584Z,48.44
2022-09-01T05:01:31.891Z,48.46
2022-09-01T05:06:39.060Z,48.52
2022-09-01T05:11:46.248Z,48.52
2022-09-01T05:16:53.382Z,48.59
2022-09-01T05:22:00.615Z,48.58
2022-09-01T05:27:07.788Z,48.55
2022-09-01T05:32:15.008Z,48.64
2022-09-01T05:37:22.161Z,48.75
2022-09-01T05:42:29.386Z,48.90
2022-09-01T05:47:36.632Z,48.76
2022-09-01T05:52:43.816Z,48.93
2022-09-01T05:57:51.007Z,48.97
2022-09-01T06:02:58.368Z,48.96
2022-09-01T06:08:05.379Z,48.95
2022-09-01T06:13:12.616Z,48.89
2022-09-01T06:18:19.741Z,49.00
2022-09-01T06:23:26.965Z,49.10
2022-09-01T06:28:34.239Z,48.98
2022-09-01T06:33:41.419Z,48.96
2022-09-01T06:38:48.606Z,49.07
2022-09-01T06:43:55.880Z,49.18
2022-09-01T06:49:03.168Z,49.16
2022-09-01T06:54:14.107Z,49.00
2022-09-01T06:59:17.651Z,49.03
2022-09-01T07:04:25.335Z,49.13
2022-09-01T07:09:48.090Z,49.30
2022-09-01T07:19:49.751Z,49.08
2022-09-01T07:25:11.978Z,49.37
2022-09-01T07:30:01.146Z,49.45
2022-09-01T07:35:08.422Z,49.73
2022-09-01T07:45:26.712Z,49.87
2022-09-01T07:55:37.283Z,49.41
2022-09-01T08:00:44.459Z,49.21
2022-09-01T08:05:51.635Z,49.46
2022-09-01T08:11:05.586Z,49.03
2022-09-01T08:16:07.463Z,49.23
2022-09-01T08:21:13.196Z,49.09
2022-09-01T08:26:20.379Z,49.49
2022-09-01T08:31:30.749Z,48.94
2022-09-01T08:36:35.574Z,49.50
2022-09-01T08:41:46.779Z,49.65
2022-09-01T08:46:49.159Z,49.76
2022-09-01T08:51:56.286Z,50.15
2022-09-01T08:57:03.493Z,50.40
2022-09-01T09:02:10.671Z,50.65
2022-09-01T09:07:17.807Z,50.27
2022-09-01T09:12:25.046Z,50.02
2022-09-01T09:17:32.248Z,49.96
2022-09-01T09:22:39.413Z,49.99
2022-09-01T09:27:46.619Z,49.69
2022-09-01T09:38:00.981Z,50.47
2022-09-01T09:43:08.248Z,50.38
2022-09-01T09:48:15.460Z,49.99
2022-09-01T09:53:23.350Z,50.21
2022-09-01T09:58:30.513Z,49.11
2022-09-01T10:03:37.732Z,49.93
2022-09-01T10:08:44.869Z,48.81
2022-09-01T10:13:52.074Z,49.32
2022-09-01T10:18:59.247Z,49.31
2022-09-01T10:24:25.915Z,49.68
2022-09-01T10:29:15.700Z,49.42
2022-09-01T10:34:20.789Z,49.63
2022-09-01T10:39:31.116Z,50.14
2022-09-01T10:44:35.893Z,49.37
2022-09-01T10:49:46.404Z,50.02
2022-09-01T10:54:51.612Z,49.97
2022-09-01T10:59:57.251Z,50.10
2022-09-01T11:05:04.014Z,49.84
2022-09-01T11:10:11.973Z,48.44
2022-09-01T11:15:18.283Z,49.32
2022-09-01T11:20:25.526Z,47.64
2022-09-01T11:25:40.302Z,48.01
2022-09-01T11:30:39.935Z,48.58
2022-09-01T11:35:47.124Z,48.91
2022-09-01T11:40:54.424Z,48.91
2022-09-01T11:46:01.551Z,47.52
2022-09-01T11:51:08.705Z,47.45
2022-09-01T11:56:15.873Z,48.32
2022-09-01T12:01:23.076Z,48.19
2022-09-01T12:06:30.356Z,48.42
2022-09-01T12:11:37.506Z,48.04
2022-09-01T12:16:44.770Z,48.22
2022-09-01T12:21:54.172Z,48.36
2022-09-01T12:26:59.111Z,48.27
2022-09-01T12:32:06.459Z,48.34
2022-09-01T12:37:13.445Z,47.35
2022-09-01T12:42:20.640Z,48.02
2022-09-01T12:47:27.825Z,48.10
2022-09-01T12:52:35.009Z,47.88
2022-09-01T12:57:42.204Z,48.65
2022-09-01T13:02:49.492Z,49.06
2022-09-01T13:07:56.559Z,48.56
2022-09-01T13:13:03.757Z,48.05
2022-09-01T13:18:11.657Z,49.14
2022-09-01T13:23:18.243Z,48.25
2022-09-01T13:34:09.307Z,48.57
2022-09-01T13:38:40.096Z,48.15
2022-09-01T13:43:48.283Z,48.53
2022-09-01T13:54:01.610Z,48.88
2022-09-01T13:59:08.805Z,48.18
2022-09-01T14:04:16.221Z,47.71
2022-09-01T14:09:23.278Z,47.83
2022-09-01T14:19:37.763Z,48.26
2022-09-01T14:24:44.928Z,47.80
2022-09-01T14:29:54.748Z,48.09
2022-09-01T14:34:59.307Z,47.96
2022-09-01T14:40:06.635Z,47.36
2022-09-01T14:45:13.772Z,47.45
2022-09-01T14:50:22.926Z,47.40
2022-09-01T14:55:28.144Z,48.16
2022-09-01T15:00:35.429Z,48.17
2022-09-01T15:05:42.631Z,47.97
2022-09-01T15:10:49.790Z,47.26
2022-09-01T15:15:57.122Z,47.75
2022-09-01T15:21:04.162Z,47.41
2022-09-01T15:26:11.349Z,47.17
2022-09-01T15:31:18.568Z,46.72
2022-09-01T15:36:25.737Z,46.93
2022-09-01T15:41:32.897Z,46.53
2022-09-01T15:46:40.163Z,46.26
2022-09-01T15:51:47.293Z,46.44
2022-09-01T15:56:54.593Z,46.38
2022-09-01T16:02:01.887Z,46.68
2022-09-01T16:07:08.977Z,46.54
2022-09-01T16:12:16.207Z,46.66
2022-09-01T16:17:23.341Z,46.63
2022-09-01T16:22:30.532Z,46.46
2022-09-01T16:27:37.780Z,46.35
2022-09-01T16:32:44.977Z,46.28
2022-09-01T16:37:52.140Z,46.09
2022-09-01T16:42:59.337Z,46.16
2022-09-01T16:48:06.530Z,46.55
2022-09-01T16:53:13.731Z,46.54
2022-09-01T16:58:21.594Z,46.79
2022-09-01T17:03:34.326Z,46.81
2022-09-01T17:08:35.386Z,46.84
2022-09-01T17:13:42.551Z,47.02
2022-09-01T17:18:49.738Z,47.39
2022-09-01T17:23:57.069Z,47.31
2022-09-01T17:29:04.291Z,47.09
2022-09-01T17:34:11.503Z,47.33
2022-09-01T17:39:18.683Z,47.32
2022-09-01T17:44:25.899Z,46.83
2022-09-01T17:49:33.105Z,46.50
2022-09-01T17:54:40.307Z,46.41
2022-09-01T17:59:47.500Z,46.18
2022-09-01T18:04:54.740Z,46.17
2022-09-01T18:10:01.880Z,46.18
2022-09-01T18:15:09.099Z,46.03
2022-09-01T18:20:16.244Z,45.90
2022-09-01T18:25:23.489Z,45.82
2022-09-01T18:30:51.733Z,45.81
2022-09-01T18:35:38.049Z,45.55
2022-09-01T18:40:45.393Z,45.83
2022-09-01T18:45:52.587Z,45.76
2022-09-01T18:50:59.821Z,45.38
2022-09-01T18:56:07.368Z,45.19
2022-09-01T19:01:14.784Z,45.02
2022-09-01T19:06:22.186Z,45.62
2022-09-01T19:11:29.933Z,45.41
2022-09-01T19:16:37.309Z,45.72
2022-09-01T19:21:45.025Z,45.59
2022-09-01T19:26:52.415Z,45.95
2022-09-01T19:31:59.850Z,45.71
2022-09-01T19:37:07.196Z,45.83
2022-09-01T19:42:14.771Z,45.98
2022-09-01T19:47:22.279Z,45.86
2022-09-01T19:52:29.585Z,46.04
2022-09-01T19:57:36.790Z,46.03
2022-09-01T20:02:44.060Z,46.01
2022-09-01T20:07:51.229Z,46.03
2022-09-01T20:12:58.451Z,45.67
2022-09-01T20:18:05.927Z,45.46
2022-09-01T20:23:13.134Z,45.68
2022-09-01T20:28:20.435Z,45.80
2022-09-01T20:33:27.570Z,45.82
2022-09-01T20:38:34.845Z,46.24
2022-09-01T20:43:42.040Z,46.40
2022-09-01T20:48:49.237Z,46.17
2022-09-01T20:53:56.480Z,46.08
2022-09-01T20:59:03.687Z,45.62
2022-09-01T21:04:10.880Z,45.91
2022-09-01T21:09:18.058Z,45.75
2022-09-01T21:14:25.291Z,45.91
2022-09-01T21:19:32.558Z,45.64
2022-09-01T21:24:39.798Z,44.89
2022-09-01T21:29:47.031Z,45.03
2022-09-01T21:34:54.201Z,45.04
2022-09-01T21:40:01.389Z,45.42
2022-09-01T21:45:08.569Z,45.52
2022-09-01T21:50:15.770Z,45.29
2022-09-01T21:55:23.282Z,45.70
2022-09-01T22:00:30.212Z,45.77
2022-09-01T22:05:37.390Z,45.61
2022-09-01T22:10:44.581Z,45.63
2022-09-01T22:15:51.822Z,45.81
2022-09-01T22:20:59.106Z,45.79
2022-09-01T22:26:06.566Z,46.07
2022-09-01T22:31:13.821Z,46.84
2022-09-01T22:36:20.938Z,46.62
2022-09-01T22:41:28.186Z,46.92
2022-09-01T22:46:35.387Z,47.46
2022-09-01T22:51:42.575Z,46.78
2022-09-01T22:56:49.756Z,46.41
2022-09-01T23:01:57.015Z,46.34
2022-09-01T23:07:04.158Z,46.10
2022-09-01T23:12:11.418Z,46.14
2022-09-01T23:17:18.592Z,45.98
2022-09-01T23:22:25.786Z,46.07
2022-09-01T23:27:32.976Z,45.83
2022-09-01T23:32:40.151Z,45.44
2022-09-01T23:37:47.333Z,45.46
2022-09-01T23:42:54.522Z,45.76
2022-09-01T23:48:01.703Z,45.30
2022-09-01T23:53:08.888Z,45.40
2022-09-01T23:58:16.086Z,45.47
